Time;durP1;ratioP1;P1;durP2;ratioP2;P2;SDS_P1;SDS_P2;PMS_P1;PMS_P2;Temp;Humidity;BMP_temperature;BMP_pressure;BME280_temperature;BME280_humidity;BME280_pressure;Samples;Min_cycle;Max_cycle;Signal;HPM_P1;HPM_P2
2022/12/03 00:01:52;;;;;;;39.57;12.37;;;4.70;99.90;;;;;;5033780;28;21176;-59
2022/12/03 00:04:21;;;;;;;39.33;12.53;;;4.70;99.90;;;;;;5032529;28;20473;-60
2022/12/03 00:06:47;;;;;;;35.03;10.47;;;4.60;99.90;;;;;;5023414;28;20510;-59
2022/12/03 00:09:14;;;;;;;76.60;21.13;;;4.60;99.90;;;;;;5061028;28;20506;-60
2022/12/03 00:11:41;;;;;;;30.63;11.03;;;4.70;99.90;;;;;;5035476;28;20476;-60
2022/12/03 00:14:08;;;;;;;43.23;12.70;;;;;;;;;;5025403;28;20489;-60
2022/12/03 00:16:34;;;;;;;30.93;10.27;;;4.70;99.90;;;;;;5026972;28;20473;-60
2022/12/03 00:19:01;;;;;;;27.87;9.17;;;4.70;99.90;;;;;;5021427;28;21205;-61
2022/12/03 00:21:29;;;;;;;33.07;10.30;;;4.60;99.90;;;;;;5018821;28;21394;-61
2022/12/03 00:23:56;;;;;;;37.83;12.70;;;4.70;99.90;;;;;;5012477;28;21225;-60
2022/12/03 00:26:23;;;;;;;54.27;13.47;;;4.70;99.90;;;;;;5015809;28;20487;-60
2022/12/03 00:28:49;;;;;;;42.47;12.27;;;4.70;99.90;;;;;;5007294;28;20480;-59
2022/12/03 00:31:16;;;;;;;55.17;17.47;;;4.70;99.90;;;;;;5011908;28;20595;-60
2022/12/03 00:33:43;;;;;;;34.63;12.10;;;4.70;99.90;;;;;;5016742;28;20509;-59
2022/12/03 00:36:10;;;;;;;45.40;12.67;;;4.70;99.90;;;;;;5029202;28;20757;-60
2022/12/03 00:38:38;;;;;;;27.60;9.37;;;4.70;99.90;;;;;;5033331;28;20843;-60
2022/12/03 00:41:05;;;;;;;38.83;11.87;;;4.70;99.90;;;;;;5032506;28;20480;-59
2022/12/03 00:43:31;;;;;;;38.33;10.77;;;4.80;99.90;;;;;;5033383;28;20472;-59
2022/12/03 00:45:58;;;;;;;72.60;20.00;;;;;;;;;;5030246;28;20484;-59
2022/12/03 00:48:25;;;;;;;36.30;11.37;;;4.10;99.90;;;;;;5031273;28;20472;-59
2022/12/03 00:50:52;;;;;;;33.60;10.10;;;4.80;99.90;;;;;;5031023;28;20828;-60
2022/12/03 00:53:19;;;;;;;53.63;14.60;;;;;;;;;;5031756;28;20837;-59
2022/12/03 00:55:49;;;;;;;50.57;13.10;;;4.90;99.90;;;;;;5033362;28;20484;-59
2022/12/03 00:58:17;;;;;;;52.57;15.13;;;4.90;99.90;;;;;;5034962;28;20496;-59
2022/12/03 01:00:43;;;;;;;36.27;12.00;;;4.90;99.90;;;;;;5032808;28;20574;-60
2022/12/03 01:03:11;;;;;;;52.10;15.60;;;;;;;;;;5040903;28;20548;-60
2022/12/03 01:05:38;;;;;;;35.17;12.00;;;;;;;;;;5032205;28;20996;-60
2022/12/03 01:08:05;;;;;;;50.87;14.47;;;;;;;;;;5023288;28;20737;-59
2022/12/03 01:10:32;;;;;;;37.67;11.30;;;;;;;;;;5035497;28;20818;-60
2022/12/03 01:13:00;;;;;;;51.13;11.77;;;;;;;;;;5010766;28;20492;-59
2022/12/03 01:15:28;;;;;;;34.70;9.27;;;;;;;;;;5034104;28;20556;-59
2022/12/03 01:17:55;;;;;;;46.47;12.70;;;;;;;;;;5028304;28;20480;-59
2022/12/03 01:20:21;;;;;;;47.87;13.70;;;4.70;99.90;;;;;;5033050;28;20480;-59
2022/12/03 01:22:48;;;;;;;39.10;11.77;;;4.80;99.90;;;;;;5034892;28;20865;-60
2022/12/03 01:25:15;;;;;;;72.93;16.70;;;4.70;99.90;;;;;;5034180;28;20510;-60
2022/12/03 01:27:42;;;;;;;41.33;11.20;;;4.80;99.90;;;;;;5011909;28;20498;-60
2022/12/03 01:30:13;;;;;;;46.60;12.90;;;4.80;99.90;;;;;;5024313;28;20479;-59
2022/12/03 01:32:38;;;;;;;33.37;10.00;;;4.80;99.90;;;;;;5007546;28;20719;-59
2022/12/03 01:35:06;;;;;;;38.93;11.43;;;;;;;;;;5003428;28;20469;-60
2022/12/03 01:37:33;;;;;;;32.50;9.80;;;;;;;;;;5011401;28;20246;-59
2022/12/03 01:40:00;;;;;;;31.57;10.83;;;5.40;99.90;;;;;;5012510;28;20961;-59
2022/12/03 01:42:29;;;;;;;35.47;10.60;;;4.80;99.90;;;;;;5025981;28;20476;-59
2022/12/03 01:44:58;;;;;;;33.67;10.70;;;4.80;99.90;;;;;;5017386;28;21586;-60
2022/12/03 01:47:28;;;;;;;27.40;9.37;;;;;;;;;;5010869;28;20511;-59
2022/12/03 01:49:59;;;;;;;31.63;10.13;;;4.90;99.90;;;;;;5009154;28;20976;-59
2022/12/03 01:52:32;;;;;;;39.83;11.03;;;;;;;;;;5022580;28;20476;-59
2022/12/03 01:55:00;;;;;;;28.07;9.70;;;;;;;;;;5014210;28;20983;-59
2022/12/03 01:57:28;;;;;;;30.20;9.50;;;;;;;;;;5006413;28;20849;-59
2022/12/03 01:59:56;;;;;;;37.80;12.10;;;;;;;;;;5009847;28;20473;-59
2022/12/03 02:02:25;;;;;;;41.33;12.03;;;;;;;;;;5009836;28;20516;-59
2022/12/03 02:04:54;;;;;;;39.30;10.47;;;4.90;99.90;;;;;;5010656;28;20481;-59
2022/12/03 02:07:24;;;;;;;46.73;13.20;;;4.80;99.90;;;;;;5010123;28;20477;-59
2022/12/03 02:09:51;;;;;;;26.90;8.53;;;4.90;99.90;;;;;;5012625;28;20489;-59
2022/12/03 02:12:21;;;;;;;63.40;18.87;;;4.90;99.90;;;;;;5010944;28;20990;-59
2022/12/03 02:14:47;;;;;;;41.07;11.17;;;4.90;99.90;;;;;;5011417;28;20488;-59
2022/12/03 02:17:14;;;;;;;51.00;14.33;;;4.80;99.90;;;;;;5017231;28;20467;-60
2022/12/03 02:19:41;;;;;;;27.10;10.10;;;7.80;99.90;;;;;;5018831;28;20847;-60
2022/12/03 02:22:14;;;;;;;52.47;14.20;;;;;;;;;;5014726;28;20477;-59
2022/12/03 02:24:47;;;;;;;33.37;11.33;;;4.80;99.90;;;;;;4998755;28;20496;-60
2022/12/03 02:27:15;;;;;;;59.33;14.00;;;4.80;99.90;;;;;;5010599;28;20922;-60
2022/12/03 02:29:42;;;;;;;33.13;11.13;;;;;;;;;;5016328;28;20480;-60
2022/12/03 02:32:09;;;;;;;55.57;15.80;;;;;;;;;;5038178;28;20594;-59
2022/12/03 02:34:38;;;;;;;33.17;9.60;;;;;;;;;;5020182;28;20483;-60
2022/12/03 02:37:06;;;;;;;46.53;10.77;;;4.70;99.90;;;;;;5016830;28;20481;-60
2022/12/03 02:39:36;;;;;;;28.10;10.47;;;4.70;99.90;;;;;;5009095;28;20492;-60
2022/12/03 02:44:50;;;;;;;34.60;11.10;;;4.60;99.90;;;;;;5005082;28;20575;-61
2022/12/03 02:47:19;;;;;;;61.77;14.00;;;;;;;;;;5013175;28;21033;-60
2022/12/03 02:49:46;;;;;;;36.37;10.70;;;4.60;99.90;;;;;;5015067;28;20490;-60
2022/12/03 02:52:13;;;;;;;50.43;15.87;;;4.50;99.90;;;;;;5017604;28;20849;-59
2022/12/03 02:54:40;;;;;;;31.60;10.47;;;4.50;99.90;;;;;;5025087;28;20479;-60
2022/12/03 02:57:07;;;;;;;27.03;7.87;;;;;;;;;;5026860;28;20522;-60
2022/12/03 02:59:34;;;;;;;30.00;9.00;;;;;;;;;;5040299;28;20469;-59
2022/12/03 03:02:02;;;;;;;38.90;12.23;;;4.50;99.90;;;;;;5023938;28;20477;-60
2022/12/03 03:04:29;;;;;;;35.67;11.13;;;4.50;99.90;;;;;;5022763;28;20698;-59
2022/12/03 03:06:56;;;;;;;45.37;11.43;;;4.50;99.90;;;;;;5018176;28;20993;-59
2022/12/03 03:09:23;;;;;;;33.67;10.30;;;4.40;99.90;;;;;;5030356;28;20948;-59
2022/12/03 03:11:50;;;;;;;40.80;11.63;;;;;;;;;;5014259;28;20810;-60
2022/12/03 03:14:17;;;;;;;44.77;13.93;;;4.30;99.90;;;;;;5011918;28;20481;-59
2022/12/03 03:16:44;;;;;;;31.70;10.07;;;4.30;99.90;;;;;;5008123;28;20488;-59
2022/12/03 03:19:12;;;;;;;47.23;13.17;;;4.20;99.90;;;;;;5017913;28;20609;-60
2022/12/03 03:21:38;;;;;;;31.60;11.47;;;4.30;99.90;;;;;;5028690;28;20477;-60
2022/12/03 03:24:06;;;;;;;33.30;9.83;;;;;;;;;;5030027;28;21005;-60
2022/12/03 03:26:32;;;;;;;25.10;9.80;;;4.20;99.90;;;;;;5021819;28;20489;-60
2022/12/03 03:29:01;;;;;;;37.43;12.70;;;4.30;99.90;;;;;;5016012;28;20846;-60
2022/12/03 03:31:28;;;;;;;34.83;11.60;;;4.30;99.90;;;;;;5016458;28;20556;-60
2022/12/03 03:33:55;;;;;;;39.13;11.30;;;4.30;99.90;;;;;;5021857;28;21747;-59
2022/12/03 03:36:24;;;;;;;43.53;12.00;;;4.30;99.90;;;;;;5019376;28;20822;-59
2022/12/03 03:38:51;;;;;;;38.37;10.93;;;4.30;99.90;;;;;;5033607;28;20472;-59
2022/12/03 03:41:20;;;;;;;48.40;15.43;;;4.40;99.90;;;;;;5031267;28;20473;-59
2022/12/03 03:43:49;;;;;;;30.37;11.37;;;4.30;99.90;;;;;;5018480;28;20492;-59
2022/12/03 03:46:18;;;;;;;52.70;16.50;;;4.30;99.90;;;;;;5023822;28;20494;-59
2022/12/03 03:48:45;;;;;;;39.50;10.70;;;4.30;99.90;;;;;;5019574;28;21012;-60
2022/12/03 03:51:13;;;;;;;49.67;15.80;;;4.30;99.90;;;;;;5017095;28;20484;-59
2022/12/03 03:53:44;;;;;;;28.17;8.57;;;4.30;99.90;;;;;;5030507;28;21019;-59
2022/12/03 03:56:11;;;;;;;47.70;15.87;;;4.20;99.90;;;;;;5029322;28;20480;-59
2022/12/03 03:58:38;;;;;;;49.33;12.30;;;4.30;99.90;;;;;;5040073;28;20893;-60
2022/12/03 04:01:05;;;;;;;36.50;11.40;;;4.20;99.90;;;;;;5039960;28;20492;-59
2022/12/03 04:03:32;;;;;;;35.33;12.03;;;4.30;99.90;;;;;;5032922;28;20678;-59
2022/12/03 04:05:59;;;;;;;60.63;10.83;;;;;;;;;;5018457;28;20476;-59
2022/12/03 04:08:26;;;;;;;36.90;11.57;;;4.30;99.90;;;;;;5024796;28;20492;-59
2022/12/03 04:13:38;;;;;;;27.33;9.60;;;4.20;99.90;;;;;;5013196;28;20488;-59
2022/12/03 04:16:05;;;;;;;33.80;11.13;;;;;;;;;;5013470;28;20760;-59
2022/12/03 04:18:45;;;;;;;34.60;9.77;;;;;;;;;;5015816;28;20481;-59
2022/12/03 04:23:58;;;;;;;37.43;9.77;;;4.20;99.90;;;;;;5024012;28;20988;-59
2022/12/03 04:29:10;;;;;;;38.30;11.17;;;5.60;99.90;;;;;;5029931;28;20877;-59
2022/12/03 04:37:07;;;;;;;38.57;11.20;;;4.10;99.90;;;;;;5031413;28;20717;-58
2022/12/03 04:39:34;;;;;;;21.73;8.07;;;4.00;99.90;;;;;;5037843;28;20916;-59
2022/12/03 04:42:02;;;;;;;28.53;10.10;;;4.00;99.90;;;;;;5038182;28;20485;-59
2022/12/03 04:44:34;;;;;;;30.53;9.83;;;4.10;99.90;;;;;;5035312;28;20477;-59
2022/12/03 04:47:02;;;;;;;32.97;10.70;;;4.10;99.90;;;;;;5037797;28;20741;-58
2022/12/03 04:49:29;;;;;;;32.27;9.97;;;;;;;;;;5037107;28;20515;-59
2022/12/03 04:51:56;;;;;;;39.53;12.20;;;4.10;99.90;;;;;;5038912;28;20484;-60
2022/12/03 04:54:22;;;;;;;42.27;12.77;;;4.10;99.90;;;;;;5030980;28;20491;-60
2022/12/03 04:56:49;;;;;;;38.23;12.37;;;4.10;99.90;;;;;;5035986;28;20655;-59
2022/12/03 04:59:17;;;;;;;37.00;13.87;;;4.10;99.90;;;;;;5034653;28;20783;-59
2022/12/03 05:01:44;;;;;;;32.33;10.87;;;;;;;;;;5027702;28;20489;-59
2022/12/03 05:04:12;;;;;;;57.93;16.10;;;;;;;;;;5038426;28;20497;-59
2022/12/03 05:06:38;;;;;;;31.50;10.10;;;7.00;99.90;;;;;;5026793;28;20499;-59
2022/12/03 05:09:05;;;;;;;36.67;11.57;;;4.10;99.90;;;;;;5029808;28;20476;-59
2022/12/03 05:11:32;;;;;;;34.53;12.03;;;4.10;99.90;;;;;;5035146;28;20973;-58
2022/12/03 05:13:59;;;;;;;30.37;9.10;;;4.10;99.90;;;;;;5019871;28;20531;-59
2022/12/03 05:16:27;;;;;;;52.67;8.40;;;4.10;99.90;;;;;;5029173;28;20488;-59
2022/12/03 05:18:54;;;;;;;36.23;11.57;;;;;;;;;;5034349;28;20468;-59
2022/12/03 05:21:21;;;;;;;48.63;14.20;;;;;;;;;;5034140;28;20495;-59
2022/12/03 05:23:48;;;;;;;46.23;11.60;;;;;;;;;;5034204;28;21010;-59
2022/12/03 05:26:15;;;;;;;49.77;15.80;;;4.20;99.90;;;;;;5032581;28;20481;-59
2022/12/03 05:28:41;;;;;;;31.20;11.70;;;4.30;99.90;;;;;;5035756;28;20496;-59
2022/12/03 05:31:08;;;;;;;60.00;16.30;;;4.40;99.90;;;;;;5033766;28;20487;-60
2022/12/03 05:33:36;;;;;;;35.07;13.17;;;4.30;99.90;;;;;;5034908;28;20479;-60
2022/12/03 05:36:03;;;;;;;31.30;10.83;;;4.30;99.90;;;;;;5032757;28;20654;-59
2022/12/03 05:38:30;;;;;;;38.27;11.43;;;;;;;;;;5033666;28;20552;-59
2022/12/03 05:40:58;;;;;;;40.90;13.50;;;;;;;;;;5034091;28;20487;-59
2022/12/03 05:43:24;;;;;;;42.27;12.37;;;;;;;;;;5025460;28;20491;-59
2022/12/03 05:45:51;;;;;;;46.37;14.00;;;4.50;99.90;;;;;;5036596;28;20559;-59
2022/12/03 05:48:18;;;;;;;39.70;13.43;;;4.50;99.90;;;;;;5036103;28;20525;-59
2022/12/03 05:50:46;;;;;;;46.43;13.87;;;4.50;99.90;;;;;;5035765;28;21026;-59
2022/12/03 05:53:13;;;;;;;49.83;14.93;;;4.50;99.90;;;;;;5032531;28;20508;-59
2022/12/03 05:55:40;;;;;;;45.30;12.97;;;;;;;;;;5032234;28;20472;-59
2022/12/03 05:58:08;;;;;;;61.50;18.87;;;7.10;99.90;;;;;;5032471;28;20485;-60
2022/12/03 06:00:36;;;;;;;35.97;12.67;;;4.60;99.90;;;;;;5035103;28;20742;-60
2022/12/03 06:03:04;;;;;;;42.50;12.80;;;;;;;;;;5034604;28;20994;-60
2022/12/03 06:05:31;;;;;;;44.93;13.30;;;;;;;;;;5035326;28;20581;-60
2022/12/03 06:08:00;;;;;;;45.87;13.33;;;4.50;99.90;;;;;;5034186;28;20833;-60
2022/12/03 06:10:27;;;;;;;40.83;12.60;;;;;;;;;;5034138;28;20465;-60
2022/12/03 06:12:54;;;;;;;43.70;12.40;;;4.60;99.90;;;;;;5034444;28;20850;-60
2022/12/03 06:15:22;;;;;;;36.57;12.23;;;4.60;99.90;;;;;;5028250;28;20849;-60
2022/12/03 06:17:49;;;;;;;52.50;14.00;;;4.60;99.90;;;;;;5035009;28;20510;-60
2022/12/03 06:20:17;;;;;;;62.33;18.30;;;;;;;;;;5032749;28;20514;-60
2022/12/03 06:22:44;;;;;;;35.00;11.87;;;8.00;99.90;;;;;;5034011;28;21027;-60
2022/12/03 06:25:13;;;;;;;70.90;17.57;;;4.50;99.90;;;;;;5031870;28;20488;-60
2022/12/03 06:27:40;;;;;;;35.53;11.93;;;4.50;99.90;;;;;;5035640;28;20481;-60
2022/12/03 06:30:08;;;;;;;43.70;14.47;;;4.50;99.90;;;;;;5034305;28;20488;-60
2022/12/03 06:32:35;;;;;;;36.43;11.70;;;4.50;99.90;;;;;;5024205;28;20595;-60
2022/12/03 06:35:02;;;;;;;57.67;16.17;;;;;;;;;;5043662;28;21207;-60
2022/12/03 06:37:29;;;;;;;41.17;13.53;;;4.40;99.90;;;;;;5031992;28;20477;-60
2022/12/03 06:39:56;;;;;;;33.43;11.60;;;4.40;99.90;;;;;;5026656;28;20480;-60
2022/12/03 06:42:24;;;;;;;65.17;16.83;;;4.50;99.90;;;;;;5036265;28;20833;-60
2022/12/03 06:44:51;;;;;;;35.03;13.00;;;4.50;99.90;;;;;;5031738;28;20483;-60
2022/12/03 06:47:17;;;;;;;56.80;15.90;;;4.50;99.90;;;;;;5026842;28;20892;-60
2022/12/03 06:49:44;;;;;;;54.63;13.07;;;;;;;;;;5035454;28;20491;-60
2022/12/03 06:52:11;;;;;;;57.33;16.80;;;;;;;;;;5034778;28;20489;-60
2022/12/03 06:54:38;;;;;;;43.00;12.27;;;4.50;99.90;;;;;;5033943;28;20476;-61
2022/12/03 06:57:05;;;;;;;45.77;12.80;;;4.50;99.90;;;;;;5033964;28;21168;-60
2022/12/03 06:59:35;;;;;;;48.83;15.83;;;4.40;99.90;;;;;;5033852;28;21023;-60
2022/12/03 07:02:01;;;;;;;43.50;14.07;;;4.50;99.90;;;;;;5041606;28;20483;-61
2022/12/03 07:04:28;;;;;;;31.73;11.00;;;4.50;99.90;;;;;;5029963;28;20469;-61
2022/12/03 07:06:55;;;;;;;33.53;11.37;;;2.90;99.90;;;;;;5013200;28;20965;-61
2022/12/03 07:09:22;;;;;;;57.13;15.17;;;6.10;99.90;;;;;;5023801;28;20495;-60
2022/12/03 07:11:48;;;;;;;31.87;11.63;;;4.40;99.90;;;;;;5017173;28;20487;-61
2022/12/03 07:14:15;;;;;;;58.70;18.70;;;;;;;;;;5031947;28;20488;-60
2022/12/03 07:16:43;;;;;;;31.93;10.50;;;4.40;99.90;;;;;;5030930;28;20491;-60
2022/12/03 07:19:11;;;;;;;50.13;15.70;;;;;;;;;;5034870;28;20480;-60
2022/12/03 07:21:38;;;;;;;45.77;14.67;;;;;;;;;;5037084;28;20472;-60
2022/12/03 07:24:05;;;;;;;37.30;11.70;;;;;;;;;;5013307;28;20479;-60
2022/12/03 07:26:32;;;;;;;56.83;13.67;;;4.50;99.90;;;;;;5029742;28;20511;-60
2022/12/03 07:28:59;;;;;;;35.40;12.57;;;4.60;99.90;;;;;;5015846;28;20489;-59
2022/12/03 07:31:26;;;;;;;31.53;11.93;;;4.60;99.90;;;;;;5037455;28;20495;-59
2022/12/03 07:33:54;;;;;;;39.23;13.43;;;4.60;99.90;;;;;;5035928;28;20499;-60
2022/12/03 07:36:20;;;;;;;57.83;18.63;;;4.60;99.90;;;;;;5016194;28;20497;-60
2022/12/03 07:38:47;;;;;;;35.33;13.10;;;4.60;99.90;;;;;;5032014;28;20492;-60
2022/12/03 07:41:14;;;;;;;74.23;18.20;;;3.40;99.90;;;;;;5026047;28;20834;-60
2022/12/03 07:43:41;;;;;;;44.57;13.77;;;4.70;99.90;;;;;;5015197;28;20495;-60
2022/12/03 07:46:08;;;;;;;49.43;15.37;;;;;;;;;;5025332;28;20488;-59
2022/12/03 07:48:35;;;;;;;44.50;13.40;;;4.70;99.90;;;;;;5023337;28;20993;-59
2022/12/03 07:51:03;;;;;;;44.60;14.57;;;4.70;99.90;;;;;;5018058;28;20523;-60
2022/12/03 07:53:30;;;;;;;52.43;15.37;;;4.60;99.90;;;;;;5019995;28;20488;-60
2022/12/03 07:55:57;;;;;;;40.50;15.07;;;4.60;99.90;;;;;;5018273;28;21297;-60
2022/12/03 07:58:24;;;;;;;54.13;15.77;;;;;;;;;;5017912;28;20493;-60
2022/12/03 08:00:50;;;;;;;41.50;14.30;;;4.70;99.90;;;;;;5025793;28;20484;-60
2022/12/03 08:03:17;;;;;;;84.53;20.53;;;4.80;99.90;;;;;;5025814;28;20477;-60
2022/12/03 08:05:44;;;;;;;42.57;13.60;;;4.80;99.90;;;;;;5017700;28;20993;-60
2022/12/03 08:08:12;;;;;;;64.53;17.30;;;4.70;99.90;;;;;;5020188;28;20492;-59
2022/12/03 08:10:39;;;;;;;31.97;13.77;;;4.80;99.90;;;;;;5016319;28;21056;-60
2022/12/03 08:13:11;;;;;;;51.83;15.43;;;4.80;99.90;;;;;;5016616;28;20485;-60
2022/12/03 08:15:38;;;;;;;36.63;14.33;;;4.80;99.90;;;;;;5015675;28;20519;-60
2022/12/03 08:18:13;;;;;;;53.27;15.90;;;4.80;99.90;;;;;;5015729;28;20497;-60
2022/12/03 08:20:41;;;;;;;58.70;14.40;;;4.80;99.90;;;;;;5016689;28;20942;-59
2022/12/03 08:23:14;;;;;;;52.53;15.97;;;4.80;99.90;;;;;;5016435;28;20481;-60
2022/12/03 08:25:41;;;;;;;40.13;16.00;;;4.80;99.90;;;;;;5015877;28;20809;-60
2022/12/03 08:28:13;;;;;;;57.73;17.90;;;4.90;99.90;;;;;;5022692;28;21531;-60
2022/12/03 08:30:40;;;;;;;41.97;14.10;;;4.90;99.90;;;;;;5032257;28;20484;-60
2022/12/03 08:33:17;;;;;;;54.93;15.77;;;4.90;99.90;;;;;;5035148;28;20510;-60
2022/12/03 08:35:49;;;;;;;46.47;16.90;;;5.00;99.90;;;;;;5038084;28;21178;-60
2022/12/03 08:38:20;;;;;;;63.17;18.20;;;5.10;99.90;;;;;;5037871;28;20545;-60
2022/12/03 08:40:49;;;;;;;45.33;14.13;;;5.10;99.90;;;;;;5039661;28;20575;-60
2022/12/03 08:43:20;;;;;;;59.80;15.53;;;5.00;99.90;;;;;;5039400;28;20480;-59
2022/12/03 08:45:48;;;;;;;51.00;17.97;;;5.00;99.90;;;;;;5037773;28;20464;-60
2022/12/03 08:48:31;;;;;;;56.87;17.80;;;5.00;99.90;;;;;;5035572;28;20484;-59
2022/12/03 08:50:59;;;;;;;55.63;16.20;;;;;;;;;;5034685;28;20484;-60
2022/12/03 08:53:31;;;;;;;45.70;16.97;;;;;;;;;;5033919;28;20575;-59
2022/12/03 08:55:59;;;;;;;50.60;15.83;;;5.10;99.90;;;;;;5034554;28;20616;-60
2022/12/03 08:58:34;;;;;;;51.37;14.63;;;5.10;99.90;;;;;;5028657;28;20480;-59
2022/12/03 09:01:15;;;;;;;46.30;13.80;;;5.10;99.90;;;;;;5037083;28;20511;-59
2022/12/03 09:03:47;;;;;;;53.97;16.63;;;5.10;99.90;;;;;;5020124;28;20485;-60
2022/12/03 09:06:15;;;;;;;83.40;21.90;;;;;;;;;;5009230;28;20543;-59
2022/12/03 09:08:43;;;;;;;46.63;15.50;;;5.20;99.90;;;;;;5027916;28;20494;-60
2022/12/03 09:11:10;;;;;;;58.50;18.57;;;;;;;;;;5014474;28;20481;-59
2022/12/03 09:13:37;;;;;;;40.40;14.60;;;;;;;;;;5017053;28;20603;-59
2022/12/03 09:16:04;;;;;;;50.93;15.07;;;;;;;;;;5011442;28;20515;-59
2022/12/03 09:18:31;;;;;;;55.53;16.23;;;5.10;99.90;;;;;;5018508;28;20491;-59
2022/12/03 09:20:58;;;;;;;51.77;17.30;;;5.20;99.90;;;;;;5026343;28;20496;-59
2022/12/03 09:23:24;;;;;;;42.70;14.47;;;5.20;99.90;;;;;;5031114;28;20488;-59
2022/12/03 09:25:53;;;;;;;58.73;19.60;;;5.20;99.90;;;;;;5021246;28;20844;-59
2022/12/03 09:28:19;;;;;;;70.17;21.20;;;5.20;99.90;;;;;;5014867;28;20477;-60
2022/12/03 09:30:46;;;;;;;54.67;18.33;;;5.20;99.90;;;;;;5015980;28;20986;-59
2022/12/03 09:33:13;;;;;;;75.80;21.00;;;5.20;99.90;;;;;;5033250;28;20488;-60
2022/12/03 09:35:39;;;;;;;46.80;14.17;;;5.20;99.90;;;;;;5025984;28;20901;-59
2022/12/03 09:38:06;;;;;;;53.63;16.90;;;5.30;99.90;;;;;;5033338;28;20477;-59
2022/12/03 09:40:34;;;;;;;56.90;19.57;;;5.30;99.90;;;;;;5033452;28;21123;-59
2022/12/03 09:43:02;;;;;;;47.40;17.10;;;5.30;99.90;;;;;;5037074;28;20865;-59
2022/12/03 09:45:29;;;;;;;37.63;12.97;;;5.30;99.90;;;;;;5036142;28;20480;-59
2022/12/03 09:47:55;;;;;;;62.53;18.00;;;5.30;99.90;;;;;;5034452;28;20716;-60
2022/12/03 09:50:24;;;;;;;60.13;18.47;;;;;;;;;;5022349;28;20488;-60
2022/12/03 09:52:53;;;;;;;54.63;17.83;;;;;;;;;;5043769;28;21022;-60
2022/12/03 09:55:23;;;;;;;72.53;20.07;;;3.80;99.90;;;;;;5035352;28;20487;-59
2022/12/03 09:57:51;;;;;;;43.60;14.97;;;5.30;99.90;;;;;;5017776;28;20504;-60
2022/12/03 10:00:22;;;;;;;62.20;20.00;;;5.40;99.90;;;;;;5014115;28;20489;-60
2022/12/03 10:02:50;;;;;;;52.80;18.00;;;1.40;99.90;;;;;;5013271;28;20491;-60
2022/12/03 10:05:18;;;;;;;63.10;18.03;;;5.40;99.90;;;;;;5013344;28;20496;-60
2022/12/03 10:07:46;;;;;;;43.23;14.67;;;;;;;;;;5015753;28;20489;-59
2022/12/03 10:10:15;;;;;;;60.23;19.10;;;5.30;99.90;;;;;;5017070;28;20558;-59
2022/12/03 10:12:42;;;;;;;55.23;18.20;;;5.30;99.90;;;;;;5018937;28;20485;-59
2022/12/03 10:15:12;;;;;;;67.53;21.60;;;5.30;99.90;;;;;;5021107;28;20484;-59
2022/12/03 10:17:41;;;;;;;39.03;14.63;;;;;;;;;;5014284;28;20871;-59
2022/12/03 10:20:12;;;;;;;59.40;17.97;;;5.30;99.90;;;;;;5012350;28;20476;-59
2022/12/03 10:22:39;;;;;;;35.57;11.80;;;5.30;99.90;;;;;;5013750;28;20855;-59
2022/12/03 10:25:09;;;;;;;52.37;18.57;;;5.30;99.90;;;;;;5010345;28;20481;-59
2022/12/03 10:27:36;;;;;;;49.80;14.73;;;;;;;;;;5023626;28;20483;-59
2022/12/03 10:30:11;;;;;;;37.23;12.50;;;5.30;99.90;;;;;;5030006;28;20499;-60
2022/12/03 10:32:44;;;;;;;40.47;14.07;;;5.30;99.90;;;;;;5007909;28;20523;-60
2022/12/03 10:35:14;;;;;;;65.30;20.17;;;5.30;99.90;;;;;;5019106;28;21006;-60
2022/12/03 10:37:58;;;;;;;54.00;15.27;;;5.30;99.90;;;;;;5034153;28;20500;-60
2022/12/03 10:40:27;;;;;;;49.43;17.43;;;5.40;99.90;;;;;;5031050;28;20508;-59
2022/12/03 10:43:12;;;;;;;61.43;18.10;;;5.50;99.90;;;;;;5032661;28;20495;-60
2022/12/03 10:45:39;;;;;;;48.50;15.57;;;5.50;99.90;;;;;;5010985;28;20477;-60
2022/12/03 10:48:12;;;;;;;53.07;16.67;;;5.50;99.90;;;;;;5021784;28;20845;-60
2022/12/03 10:50:48;;;;;;;54.30;16.73;;;5.50;99.90;;;;;;5024296;28;20560;-60
2022/12/03 10:53:15;;;;;;;73.27;21.77;;;5.50;99.90;;;;;;5035495;28;20511;-60
2022/12/03 10:55:43;;;;;;;64.03;16.37;;;5.60;99.90;;;;;;5036634;28;20480;-59
2022/12/03 10:58:21;;;;;;;51.27;15.20;;;5.60;99.90;;;;;;5036456;28;20807;-59
2022/12/03 11:00:48;;;;;;;66.10;16.93;;;5.70;99.90;;;;;;5019721;28;20576;-60
2022/12/03 11:03:22;;;;;;;66.67;21.40;;;5.70;99.90;;;;;;5013304;28;20500;-59
2022/12/03 11:05:50;;;;;;;58.67;16.77;;;;;;;;;;5012609;28;20492;-60
2022/12/03 11:08:18;;;;;;;67.67;22.80;;;;;;;;;;5012158;28;20473;-60
2022/12/03 11:10:45;;;;;;;74.87;18.17;;;;;;;;;;5014063;28;21267;-60
2022/12/03 11:13:48;;;;;;;89.37;22.77;;;5.80;99.90;;;;;;5013001;28;20485;-59
2022/12/03 11:16:36;;;;;;;78.27;21.60;;;;;;;;;;5019272;28;20487;-60
2022/12/03 11:19:04;;;;;;;70.50;17.77;;;5.80;99.90;;;;;;5023462;28;20492;-59
2022/12/03 11:21:31;;;;;;;45.93;16.33;;;;;;;;;;5032049;28;20868;-60
2022/12/03 11:24:19;;;;;;;39.57;14.53;;;5.80;99.90;;;;;;5036626;28;20479;-60
2022/12/03 11:27:25;;;;;;;46.33;14.27;;;5.90;99.90;;;;;;5025234;28;20504;-60
2022/12/03 11:30:00;;;;;;;44.83;15.07;;;5.90;99.90;;;;;;5032482;28;20621;-60
2022/12/03 11:33:06;;;;;;;48.00;12.90;;;5.80;99.90;;;;;;5034097;28;20490;-59
2022/12/03 11:36:05;;;;;;;41.80;12.63;;;5.80;99.90;;;;;;5002415;28;20984;-60
2022/12/03 11:38:54;;;;;;;71.33;18.00;;;5.90;99.90;;;;;;5014988;28;20665;-59
2022/12/03 11:41:30;;;;;;;59.43;17.83;;;5.80;99.90;;;;;;5006918;28;20496;-59
2022/12/03 11:44:29;;;;;;;50.60;15.53;;;5.90;99.90;;;;;;5020602;28;20483;-60
2022/12/03 11:47:00;;;;;;;42.60;15.17;;;5.90;99.90;;;;;;5017210;28;20524;-59
2022/12/03 11:49:49;;;;;;;41.43;14.70;;;5.90;99.90;;;;;;5019853;28;20742;-60
2022/12/03 11:52:24;;;;;;;52.13;14.17;;;;;;;;;;5022771;28;20478;-60
2022/12/03 11:54:56;;;;;;;52.50;16.20;;;6.20;99.90;;;;;;5034172;28;20494;-60
2022/12/03 11:57:28;;;;;;;56.20;16.40;;;6.30;99.90;;;;;;5033811;28;20478;-60
2022/12/03 12:00:06;;;;;;;44.57;17.03;;;6.60;99.90;;;;;;5038528;28;20480;-60
2022/12/03 12:02:32;;;;;;;50.87;17.27;;;6.80;99.90;;;;;;5038640;28;20483;-60
2022/12/03 12:05:22;;;;;;;46.53;15.87;;;7.10;99.90;;;;;;5040542;28;20567;-60
2022/12/03 12:07:49;;;;;;;38.23;14.30;;;7.20;99.60;;;;;;5039236;28;20485;-61
2022/12/03 12:10:42;;;;;;;51.23;21.20;;;7.20;99.50;;;;;;5037265;28;20473;-61
2022/12/03 12:13:25;;;;;;;48.57;18.07;;;7.30;99.60;;;;;;5036314;28;20477;-60
2022/12/03 12:15:52;;;;;;;42.93;17.53;;;7.30;99.30;;;;;;5021653;28;20529;-60
2022/12/03 12:18:39;;;;;;;48.73;18.27;;;7.20;99.10;;;;;;5014522;28;20484;-60
2022/12/03 12:21:46;;;;;;;39.77;17.17;;;7.10;99.10;;;;;;5020860;28;20753;-61
2022/12/03 12:24:34;;;;;;;53.20;18.27;;;7.00;98.90;;;;;;5014081;28;21028;-61
2022/12/03 12:27:05;;;;;;;37.97;14.40;;;6.80;99.40;;;;;;5011684;28;20560;-60
2022/12/03 12:29:32;;;;;;;38.90;16.03;;;6.70;99.20;;;;;;5027052;28;20600;-61
2022/12/03 12:32:13;;;;;;;43.80;17.33;;;6.70;99.60;;;;;;5035482;28;20487;-60
2022/12/03 12:34:41;;;;;;;34.87;15.40;;;6.70;99.30;;;;;;5027014;28;20825;-60
2022/12/03 12:37:12;;;;;;;59.10;20.30;;;6.60;99.40;;;;;;5026016;28;21057;-61
2022/12/03 12:39:39;;;;;;;42.70;15.67;;;6.60;99.40;;;;;;5027427;28;20488;-60
2022/12/03 12:42:26;;;;;;;41.27;17.37;;;6.50;99.30;;;;;;5019981;28;20481;-60
2022/12/03 12:44:54;;;;;;;48.93;15.63;;;6.40;99.50;;;;;;5020765;28;20464;-60
2022/12/03 12:47:20;;;;;;;61.57;20.73;;;5.30;99.10;;;;;;5031919;28;20476;-61
2022/12/03 12:49:47;;;;;;;33.90;15.37;;;6.30;99.70;;;;;;5032090;28;20500;-60
2022/12/03 12:52:15;;;;;;;67.33;21.80;;;6.40;99.90;;;;;;5022529;28;20484;-60
2022/12/03 12:54:41;;;;;;;43.83;18.20;;;6.40;99.90;;;;;;5028225;28;20856;-60
2022/12/03 12:57:14;;;;;;;43.67;16.07;;;6.40;99.50;;;;;;5033468;28;20492;-61
2022/12/03 12:59:41;;;;;;;40.43;16.90;;;6.40;99.60;;;;;;5035253;28;20526;-60
2022/12/03 13:02:36;;;;;;;46.53;17.07;;;6.40;99.60;;;;;;5031089;28;20483;-60
2022/12/03 13:05:03;;;;;;;40.40;15.37;;;6.30;99.40;;;;;;5011508;28;20465;-60
2022/12/03 13:07:30;;;;;;;32.73;12.70;;;6.20;99.40;;;;;;5018061;28;21093;-61
2022/12/03 13:09:57;;;;;;;46.23;13.90;;;6.20;99.50;;;;;;5009481;28;20902;-60
2022/12/03 13:12:25;;;;;;;38.33;15.50;;;6.20;99.70;;;;;;5014522;28;20492;-60
2022/12/03 13:14:53;;;;;;;49.43;17.97;;;6.20;99.60;;;;;;5012137;28;20601;-61
2022/12/03 13:17:23;;;;;;;58.00;18.20;;;6.20;99.80;;;;;;5000965;28;20497;-60
2022/12/03 13:19:51;;;;;;;50.63;18.03;;;6.20;99.70;;;;;;5006154;28;20993;-61
2022/12/03 13:22:20;;;;;;;61.10;20.37;;;6.20;99.50;;;;;;5003776;28;20520;-61
2022/12/03 13:24:49;;;;;;;48.00;16.43;;;6.20;99.60;;;;;;5008852;28;20488;-61
2022/12/03 13:27:28;;;;;;;66.70;20.10;;;6.20;99.60;;;;;;5006661;28;20482;-60